Terminal Aerodrome Forecast
Issued by NWS

Home | Current Version | Previous Version | Text Only | Print | Product List | Glossary On
Versions: 1 2 3 4 5 6 7 8 9 10 11 12 13
000
FTUS43 KDMX 261720
TAFOTM
TAF
KOTM 261720Z 2618/2718 23008KT P6SM FEW250
     FM270000 29007KT P6SM SCT220
     FM270200 33012KT P6SM SCT150
     FM271200 29008KT P6SM SKC
     FM271600 27015G22KT P6SM SCT220=

USA.gov is the U.S. government's official web portal to all federal, state and local government web resources and services.